Time;durP1;ratioP1;P1;durP2;ratioP2;P2;SDS_P1;SDS_P2;PMS_P1;PMS_P2;Temp;Humidity;BMP_temperature;BMP_pressure;BME280_temperature;BME280_humidity;BME280_pressure;Samples;Min_cycle;Max_cycle;Signal;HPM_P1;HPM_P2
2021/01/31 00:00:20;;;;;;;1.80;1.70;;;1.40;98.20;;;;;;6192176;23;20411;-77
2021/01/31 00:02:47;;;;;;;1.77;1.67;;;1.40;98.20;;;;;;6194973;23;20439;-77
2021/01/31 00:05:15;;;;;;;1.70;1.50;;;1.30;98.20;;;;;;6194266;23;20424;-77
2021/01/31 00:07:42;;;;;;;1.70;1.60;;;1.30;98.20;;;;;;6192307;23;20454;-77
2021/01/31 00:10:10;;;;;;;1.70;1.50;;;1.30;98.20;;;;;;6193984;23;20948;-77
2021/01/31 00:12:38;;;;;;;1.63;1.50;;;1.30;98.20;;;;;;6194254;23;20440;-77
2021/01/31 00:15:06;;;;;;;1.80;1.70;;;1.20;98.20;;;;;;6194051;23;20431;-77
2021/01/31 00:17:33;;;;;;;1.70;1.60;;;1.20;98.20;;;;;;6189606;23;20416;-77
2021/01/31 00:19:59;;;;;;;1.70;1.60;;;1.20;98.20;;;;;;6193703;23;20419;-77
2021/01/31 00:22:26;;;;;;;1.70;1.60;;;1.20;98.20;;;;;;6193614;23;20490;-77
2021/01/31 00:24:54;;;;;;;1.70;1.50;;;1.20;98.20;;;;;;6194831;23;20419;-77
2021/01/31 00:27:22;;;;;;;1.70;1.40;;;1.20;98.20;;;;;;6192132;23;20531;-77
2021/01/31 00:29:49;;;;;;;1.70;1.60;;;1.10;98.20;;;;;;6193918;23;20425;-77
2021/01/31 00:32:21;;;;;;;1.70;1.60;;;1.10;98.20;;;;;;6196826;23;20424;-77
2021/01/31 00:34:48;;;;;;;1.80;1.70;;;1.10;98.20;;;;;;6197148;23;20392;-77
2021/01/31 00:37:15;;;;;;;1.80;1.70;;;1.10;98.20;;;;;;6195580;23;20410;-76
2021/01/31 00:39:43;;;;;;;1.70;1.50;;;1.10;98.20;;;;;;6196305;23;20500;-76
2021/01/31 00:44:37;;;;;;;1.70;1.60;;;1.10;98.20;;;;;;6140139;23;20413;-82
2021/01/31 00:47:05;;;;;;;1.70;1.60;;;1.10;98.20;;;;;;6142584;23;20952;-80
2021/01/31 00:49:31;;;;;;;1.80;1.70;;;1.00;98.20;;;;;;6142862;23;20425;-80
2021/01/31 00:51:57;;;;;;;1.70;1.60;;;1.00;98.20;;;;;;6147862;23;20425;-80
2021/01/31 00:54:24;;;;;;;1.70;1.60;;;1.00;98.20;;;;;;6116169;23;20477;-80
2021/01/31 00:56:50;;;;;;;1.70;1.50;;;1.00;98.20;;;;;;6113389;23;20497;-80
2021/01/31 00:59:17;;;;;;;1.70;1.60;;;1.00;98.20;;;;;;6113960;23;20457;-80
2021/01/31 01:01:43;;;;;;;1.70;1.50;;;1.00;98.20;;;;;;6113632;23;20516;-80
2021/01/31 01:04:10;;;;;;;1.70;1.60;;;1.00;98.20;;;;;;6115036;23;20452;-80
2021/01/31 01:06:37;;;;;;;1.70;1.50;;;1.00;98.20;;;;;;6113912;23;20451;-81
2021/01/31 01:09:04;;;;;;;1.83;1.73;;;1.00;98.20;;;;;;6115298;23;20429;-81
2021/01/31 01:11:30;;;;;;;1.70;1.57;;;1.00;98.20;;;;;;6117177;23;20783;-80
2021/01/31 01:13:57;;;;;;;1.70;1.50;;;1.00;98.20;;;;;;6116381;23;20860;-79
2021/01/31 01:16:23;;;;;;;1.80;1.70;;;1.00;98.20;;;;;;6120098;23;20794;-78
2021/01/31 01:18:50;;;;;;;1.70;1.50;;;1.00;98.20;;;;;;6125238;23;20421;-80
2021/01/31 01:21:17;;;;;;;1.70;1.60;;;1.00;98.20;;;;;;6123409;23;20422;-79
2021/01/31 01:23:43;;;;;;;2.10;1.90;;;1.00;98.20;;;;;;6124685;23;20985;-80
2021/01/31 01:26:10;;;;;;;1.67;1.50;;;1.00;98.20;;;;;;6125623;23;20418;-79
2021/01/31 01:28:36;;;;;;;1.77;1.67;;;0.90;98.20;;;;;;6125143;23;21013;-78
2021/01/31 01:31:03;;;;;;;1.87;1.77;;;0.90;98.20;;;;;;6123093;23;20621;-79
2021/01/31 01:33:29;;;;;;;1.80;1.70;;;0.90;98.20;;;;;;6123379;23;20442;-79
2021/01/31 01:35:56;;;;;;;1.87;1.77;;;0.90;98.20;;;;;;6124556;23;20428;-78
2021/01/31 01:38:23;;;;;;;1.80;1.70;;;0.90;98.20;;;;;;6126172;23;20607;-79
2021/01/31 01:40:52;;;;;;;1.70;1.60;;;0.80;98.20;;;;;;6124401;23;20923;-79
2021/01/31 01:43:20;;;;;;;2.00;1.80;;;0.80;98.20;;;;;;6125569;23;20531;-79
2021/01/31 01:46:03;;;;;;;1.90;1.80;;;0.80;98.20;;;;;;6126250;23;20418;-79
2021/01/31 01:48:30;;;;;;;1.80;1.70;;;0.70;98.20;;;;;;6126164;23;20473;-79
2021/01/31 01:50:57;;;;;;;1.83;1.73;;;0.70;98.20;;;;;;6125038;23;20653;-79
2021/01/31 01:53:27;;;;;;;1.70;1.60;;;0.70;98.20;;;;;;6124878;23;20464;-78
2021/01/31 01:55:59;;;;;;;1.70;1.60;;;0.70;98.20;;;;;;6123575;23;20417;-79
2021/01/31 01:58:28;;;;;;;1.80;1.70;;;0.70;98.20;;;;;;6134132;23;20406;-78
2021/01/31 02:00:56;;;;;;;1.70;1.60;;;0.70;98.20;;;;;;6125786;23;20429;-79
2021/01/31 02:03:25;;;;;;;1.80;1.70;;;0.60;98.20;;;;;;6123051;23;20836;-79
2021/01/31 02:05:58;;;;;;;1.70;1.60;;;0.60;98.20;;;;;;6123192;23;20427;-78
2021/01/31 02:08:25;;;;;;;1.70;1.60;;;0.60;98.20;;;;;;6122352;23;20437;-79
2021/01/31 02:10:52;;;;;;;1.70;1.60;;;0.50;98.20;;;;;;6122521;23;20430;-78
2021/01/31 02:13:19;;;;;;;8.20;4.33;;;0.50;98.20;;;;;;6134775;23;20824;-79
2021/01/31 02:15:47;;;;;;;1.70;1.60;;;0.50;98.20;;;;;;6126065;23;20429;-80
2021/01/31 02:18:25;;;;;;;1.70;1.60;;;0.50;98.20;;;;;;6122768;23;20421;-78
2021/01/31 02:21:22;;;;;;;1.77;1.67;;;0.50;98.20;;;;;;6124873;23;20406;-79
2021/01/31 02:24:30;;;;;;;1.80;1.70;;;0.40;98.20;;;;;;6124898;23;20446;-79
2021/01/31 02:27:36;;;;;;;2.00;1.80;;;0.30;98.20;;;;;;6121259;23;20518;-78
2021/01/31 02:30:42;;;;;;;1.80;1.70;;;0.30;98.20;;;;;;6123304;23;20509;-79
2021/01/31 02:33:28;;;;;;;1.70;1.60;;;0.20;98.20;;;;;;6123344;23;20461;-79
2021/01/31 02:36:09;;;;;;;1.80;1.70;;;0.20;98.20;;;;;;6122449;23;20743;-79
2021/01/31 02:38:45;;;;;;;1.70;1.60;;;0.10;98.20;;;;;;6118278;23;20735;-78
2021/01/31 02:41:18;;;;;;;1.70;1.60;;;0.10;98.20;;;;;;6120708;23;20406;-79
2021/01/31 02:43:49;;;;;;;1.70;1.60;;;0.10;98.20;;;;;;6121165;23;20757;-78
2021/01/31 02:46:29;;;;;;;1.80;1.70;;;0.00;98.20;;;;;;6120782;23;20472;-78
2021/01/31 02:49:03;;;;;;;1.70;1.60;;;0.00;98.20;;;;;;6120961;23;20410;-78
2021/01/31 02:51:35;;;;;;;1.73;1.63;;;0.00;98.20;;;;;;6121109;23;20497;-78
2021/01/31 02:54:05;;;;;;;1.80;1.70;;;0.00;98.20;;;;;;6120674;23;20497;-78
2021/01/31 02:56:38;;;;;;;1.80;1.70;;;-0.10;98.20;;;;;;6120497;23;20500;-77
2021/01/31 02:59:10;;;;;;;1.70;1.50;;;-0.10;98.20;;;;;;6120530;23;20632;-78
2021/01/31 03:01:42;;;;;;;1.87;1.70;;;-0.10;98.20;;;;;;6120974;23;20895;-78
2021/01/31 03:04:16;;;;;;;1.80;1.70;;;-0.10;98.20;;;;;;6121349;23;20449;-78
2021/01/31 03:06:49;;;;;;;1.80;1.70;;;-0.20;98.20;;;;;;6120439;23;20497;-77
2021/01/31 03:09:26;;;;;;;1.97;1.80;;;-0.20;98.20;;;;;;6121237;23;20498;-78
2021/01/31 03:12:00;;;;;;;1.80;1.60;;;-0.20;98.20;;;;;;6121775;23;20433;-77
2021/01/31 03:14:30;;;;;;;1.70;1.60;;;-0.20;98.20;;;;;;6120269;23;20474;-77
2021/01/31 03:17:02;;;;;;;1.97;1.83;;;-0.20;98.20;;;;;;6119809;23;20406;-76
2021/01/31 03:19:37;;;;;;;1.80;1.70;;;-0.20;98.20;;;;;;6121248;23;20406;-76
2021/01/31 03:22:08;;;;;;;1.90;1.80;;;-0.30;98.20;;;;;;6121340;23;20437;-77
2021/01/31 03:24:40;;;;;;;1.80;1.70;;;-0.30;98.20;;;;;;6120835;23;20738;-76
2021/01/31 03:27:11;;;;;;;1.80;1.70;;;-0.30;98.20;;;;;;6120654;23;20441;-76
2021/01/31 03:29:38;;;;;;;2.17;1.97;;;-0.40;98.20;;;;;;6121022;23;20762;-77
2021/01/31 03:32:09;;;;;;;2.33;2.13;;;-0.40;98.20;;;;;;6120139;23;20421;-77
2021/01/31 03:34:43;;;;;;;1.70;1.60;;;-0.40;98.20;;;;;;6119480;23;20410;-77
2021/01/31 03:37:12;;;;;;;1.80;1.70;;;-0.50;98.20;;;;;;6119874;23;20438;-76
2021/01/31 03:39:41;;;;;;;1.80;1.70;;;-0.50;98.20;;;;;;6121209;23;20429;-76
2021/01/31 03:42:08;;;;;;;1.80;1.70;;;-0.50;98.20;;;;;;6119780;23;20807;-76
2021/01/31 03:44:42;;;;;;;1.80;1.70;;;-0.60;98.20;;;;;;6121440;23;20429;-76
2021/01/31 03:47:14;;;;;;;2.10;1.90;;;-0.60;98.20;;;;;;6120795;23;20742;-77
2021/01/31 03:49:47;;;;;;;1.87;1.70;;;-0.70;98.20;;;;;;6130204;23;20867;-77
2021/01/31 03:52:13;;;;;;;1.80;1.70;;;-0.70;98.20;;;;;;6120362;23;20481;-76
2021/01/31 03:54:40;;;;;;;2.00;1.80;;;-0.70;98.20;;;;;;6120576;23;20453;-76
2021/01/31 03:57:13;;;;;;;2.00;1.80;;;-0.80;98.20;;;;;;6120373;23;20418;-75
2021/01/31 03:59:42;;;;;;;2.00;1.80;;;-0.80;98.20;;;;;;6119602;23;20879;-76
2021/01/31 04:02:11;;;;;;;1.80;1.70;;;-0.90;98.20;;;;;;6120694;23;20429;-75
2021/01/31 04:04:40;;;;;;;1.90;1.70;;;-0.90;98.20;;;;;;6121086;23;20760;-75
2021/01/31 04:07:10;;;;;;;1.90;1.70;;;-0.90;98.20;;;;;;6119128;23;20464;-76
2021/01/31 04:09:39;;;;;;;2.03;1.83;;;-1.00;98.20;;;;;;6120294;23;20492;-76
2021/01/31 04:12:07;;;;;;;1.80;1.70;;;-1.00;98.20;;;;;;6120491;23;20740;-76
2021/01/31 04:14:39;;;;;;;2.00;1.80;;;-1.00;98.20;;;;;;6120527;23;20429;-76
2021/01/31 04:17:06;;;;;;;1.90;1.70;;;-1.10;98.20;;;;;;6120287;23;21194;-76
2021/01/31 04:19:32;;;;;;;2.10;1.90;;;-1.10;98.20;;;;;;6120231;23;20469;-76
2021/01/31 04:21:59;;;;;;;2.00;1.80;;;-1.10;98.20;;;;;;6121262;23;20422;-76
2021/01/31 04:24:26;;;;;;;1.90;1.70;;;-1.20;98.20;;;;;;6120914;23;20754;-75
2021/01/31 04:26:53;;;;;;;2.20;2.00;;;-1.20;98.20;;;;;;6119028;23;20464;-76
2021/01/31 04:29:19;;;;;;;1.83;1.73;;;-1.20;98.20;;;;;;6120635;23;20422;-75
2021/01/31 04:31:45;;;;;;;2.10;1.90;;;-1.30;98.20;;;;;;6120082;23;20907;-75
2021/01/31 04:34:12;;;;;;;2.20;2.00;;;-1.30;98.20;;;;;;6120228;23;20438;-75
2021/01/31 04:36:38;;;;;;;2.10;1.90;;;-1.30;98.20;;;;;;6120387;23;20519;-76
2021/01/31 04:39:05;;;;;;;2.00;1.80;;;-1.40;98.20;;;;;;6120564;23;20421;-75
2021/01/31 04:41:36;;;;;;;2.10;1.90;;;-1.40;98.20;;;;;;6118368;23;20463;-74
2021/01/31 04:44:04;;;;;;;2.00;1.80;;;-1.40;98.20;;;;;;6119361;23;20460;-75
2021/01/31 04:46:42;;;;;;;2.20;2.00;;;-1.50;98.20;;;;;;6122427;23;20422;-75
2021/01/31 04:49:19;;;;;;;1.87;1.70;;;-1.50;98.20;;;;;;6121816;23;20413;-75
2021/01/31 04:52:03;;;;;;;2.00;1.80;;;-1.50;98.20;;;;;;6122349;23;20410;-75
2021/01/31 04:54:41;;;;;;;2.00;1.80;;;-1.50;98.20;;;;;;6122634;23;20565;-74
2021/01/31 04:57:13;;;;;;;2.07;1.87;;;-1.60;98.20;;;;;;6122160;23;20421;-74
2021/01/31 04:59:43;;;;;;;2.00;1.80;;;-1.60;98.20;;;;;;6122360;23;20406;-77
2021/01/31 05:02:15;;;;;;;1.83;1.73;;;-1.60;98.20;;;;;;6122100;23;20705;-74
2021/01/31 05:04:50;;;;;;;1.80;1.70;;;-1.60;98.20;;;;;;6122891;23;20492;-76
2021/01/31 05:07:19;;;;;;;1.87;1.70;;;-1.60;98.20;;;;;;6121557;23;20828;-75
2021/01/31 05:09:46;;;;;;;2.00;1.80;;;-1.70;98.20;;;;;;6122578;23;20429;-75
2021/01/31 05:12:23;;;;;;;1.97;1.80;;;-1.70;98.20;;;;;;6122606;23;20433;-76
2021/01/31 05:15:03;;;;;;;1.90;1.80;;;-1.70;98.20;;;;;;6121962;23;20414;-75
2021/01/31 05:17:31;;;;;;;2.13;1.93;;;-1.70;98.20;;;;;;6122206;23;20437;-76
2021/01/31 05:19:58;;;;;;;2.20;2.00;;;-1.70;98.20;;;;;;6121394;23;20433;-75
2021/01/31 05:22:29;;;;;;;1.93;1.80;;;-1.70;98.20;;;;;;6121946;23;20445;-75
2021/01/31 05:24:59;;;;;;;2.00;1.80;;;-1.80;98.20;;;;;;6122651;23;20413;-77
2021/01/31 05:27:29;;;;;;;1.90;1.80;;;-1.80;98.20;;;;;;6121630;23;20484;-76
2021/01/31 05:29:56;;;;;;;2.00;1.80;;;-1.80;98.20;;;;;;6122746;23;20406;-76
2021/01/31 05:32:23;;;;;;;2.37;2.17;;;-1.80;98.20;;;;;;6122163;23;20755;-76
2021/01/31 05:34:52;;;;;;;2.00;1.80;;;-1.90;98.20;;;;;;6122410;23;20433;-75
2021/01/31 05:37:21;;;;;;;2.17;1.97;;;-1.90;98.20;;;;;;6122532;23;20418;-76
2021/01/31 05:39:54;;;;;;;1.90;1.73;;;-1.90;98.20;;;;;;6121556;23;20422;-75
2021/01/31 05:42:23;;;;;;;2.00;1.80;;;-1.90;98.20;;;;;;6122393;23;20406;-76
2021/01/31 05:45:01;;;;;;;2.10;1.90;;;-1.90;98.20;;;;;;6122166;23;20410;-75
2021/01/31 05:47:34;;;;;;;2.03;1.87;;;-1.90;98.20;;;;;;6122111;23;20440;-75
2021/01/31 05:50:14;;;;;;;2.00;1.80;;;-1.90;98.20;;;;;;6121396;23;20406;-76
2021/01/31 05:52:41;;;;;;;2.00;1.80;;;-1.90;98.20;;;;;;6121928;23;20506;-76
2021/01/31 05:55:22;;;;;;;2.10;1.90;;;-1.90;98.20;;;;;;6131533;23;20489;-75
2021/01/31 05:57:49;;;;;;;2.00;1.80;;;-2.00;98.20;;;;;;6121581;23;20413;-77
2021/01/31 06:00:32;;;;;;;2.00;1.80;;;-2.00;98.20;;;;;;6121921;23;20453;-76
2021/01/31 06:03:01;;;;;;;2.00;1.80;;;-2.00;98.20;;;;;;6121547;23;20442;-76
2021/01/31 06:05:29;;;;;;;1.90;1.80;;;-2.00;98.20;;;;;;6121189;23;20528;-76
2021/01/31 06:08:01;;;;;;;1.93;1.80;;;-2.00;98.20;;;;;;6121189;23;20496;-75
2021/01/31 06:10:29;;;;;;;2.00;1.80;;;-2.10;98.20;;;;;;6121043;23;20429;-75
2021/01/31 06:13:05;;;;;;;2.20;2.00;;;-2.10;98.20;;;;;;6121651;23;20441;-75
2021/01/31 06:15:38;;;;;;;2.10;1.93;;;-2.10;98.20;;;;;;6120224;23;20406;-76
2021/01/31 06:18:12;;;;;;;2.10;1.90;;;-2.10;98.20;;;;;;6123118;23;20402;-75
2021/01/31 06:20:41;;;;;;;2.10;1.90;;;-2.10;98.20;;;;;;6123306;23;20406;-75
2021/01/31 06:23:19;;;;;;;2.30;2.10;;;-2.10;98.20;;;;;;6123470;23;20446;-75
2021/01/31 06:25:46;;;;;;;1.90;1.80;;;-2.10;98.20;;;;;;6122697;23;20471;-74
2021/01/31 06:28:18;;;;;;;2.17;1.97;;;-2.10;98.20;;;;;;6125130;23;20453;-74
2021/01/31 06:30:57;;;;;;;2.20;2.00;;;-2.20;98.20;;;;;;6125163;23;20406;-74
2021/01/31 06:33:23;;;;;;;2.10;1.90;;;-2.20;98.20;;;;;;6124951;23;20560;-74
2021/01/31 06:36:02;;;;;;;2.00;1.80;;;-2.20;98.20;;;;;;6122030;23;20425;-75
2021/01/31 06:38:37;;;;;;;2.20;2.00;;;-2.20;98.20;;;;;;6108598;23;20977;-75
2021/01/31 06:41:15;;;;;;;2.10;1.90;;;-2.30;98.20;;;;;;6122165;23;20705;-74
2021/01/31 06:43:52;;;;;;;2.00;1.80;;;-2.30;98.20;;;;;;6122424;23;20449;-74
2021/01/31 06:46:28;;;;;;;2.10;1.90;;;-2.30;98.20;;;;;;6123446;23;20895;-75
2021/01/31 06:49:06;;;;;;;2.20;2.00;;;-2.30;98.20;;;;;;6121729;23;20449;-76
2021/01/31 06:51:42;;;;;;;2.00;1.80;;;-2.40;98.20;;;;;;6123324;23;20404;-76
2021/01/31 06:54:47;;;;;;;2.20;2.00;;;-2.30;98.20;;;;;;6122888;23;20505;-76
2021/01/31 06:57:58;;;;;;;1.93;1.80;;;-2.40;98.20;;;;;;6123559;23;20413;-76
2021/01/31 07:00:55;;;;;;;2.20;2.00;;;-2.40;98.20;;;;;;6123503;23;20807;-76
2021/01/31 07:04:00;;;;;;;2.30;2.10;;;-2.40;98.20;;;;;;6091637;23;20450;-76
2021/01/31 07:06:46;;;;;;;2.30;2.10;;;-2.50;98.20;;;;;;6113354;23;20480;-75
2021/01/31 07:09:33;;;;;;;2.00;1.80;;;-2.50;98.20;;;;;;6122938;23;20473;-75
2021/01/31 07:12:04;;;;;;;2.10;1.90;;;-2.50;98.20;;;;;;6122696;23;20402;-75
2021/01/31 07:14:58;;;;;;;2.20;2.00;;;-2.50;98.20;;;;;;6132422;23;20401;-75
2021/01/31 07:17:35;;;;;;;2.10;1.90;;;-2.40;98.20;;;;;;6118847;23;20428;-76
2021/01/31 07:20:07;;;;;;;2.00;1.80;;;-2.40;98.20;;;;;;6122030;23;20465;-76
2021/01/31 07:22:41;;;;;;;2.07;1.87;;;-2.40;98.20;;;;;;6122009;23;20590;-75
2021/01/31 07:25:13;;;;;;;2.30;2.10;;;-2.30;98.20;;;;;;6122565;23;20732;-76
2021/01/31 07:27:46;;;;;;;2.10;1.90;;;-2.30;98.20;;;;;;6122010;23;20442;-75
2021/01/31 07:30:20;;;;;;;2.30;2.10;;;-2.20;98.20;;;;;;6123099;23;20412;-76
2021/01/31 07:32:54;;;;;;;2.10;1.90;;;-2.20;98.20;;;;;;6121956;23;20454;-76
2021/01/31 07:35:26;;;;;;;2.33;2.13;;;-2.20;98.20;;;;;;6123353;23;20406;-75
2021/01/31 07:38:03;;;;;;;2.10;1.90;;;-2.20;98.20;;;;;;6123247;23;20410;-74
2021/01/31 07:40:31;;;;;;;1.97;1.80;;;-2.20;98.20;;;;;;6124904;23;20410;-75
2021/01/31 07:43:00;;;;;;;2.40;2.20;;;-2.20;98.20;;;;;;6124439;23;20769;-75
2021/01/31 07:45:28;;;;;;;1.90;1.80;;;-2.20;98.20;;;;;;6125276;23;20429;-76
2021/01/31 07:48:31;;;;;;;1.93;1.80;;;-2.20;98.20;;;;;;6122839;23;20480;-76
2021/01/31 07:50:59;;;;;;;2.37;2.17;;;-2.10;98.20;;;;;;6133003;23;20798;-76
2021/01/31 07:53:29;;;;;;;2.10;1.90;;;-2.10;98.20;;;;;;6123648;23;20445;-76
2021/01/31 07:55:56;;;;;;;2.30;2.10;;;-2.00;98.20;;;;;;6122937;23;20476;-77
2021/01/31 07:58:38;;;;;;;1.90;1.80;;;-1.90;98.20;;;;;;6127173;23;20469;-77
2021/01/31 08:01:13;;;;;;;2.00;1.80;;;-1.70;98.20;;;;;;6121691;23;20406;-76
2021/01/31 08:03:41;;;;;;;2.10;1.90;;;-1.60;98.20;;;;;;6128595;23;20441;-76
2021/01/31 08:06:30;;;;;;;2.03;1.87;;;-1.40;98.20;;;;;;6140781;23;20513;-76
2021/01/31 08:08:58;;;;;;;1.90;1.80;;;-1.20;98.20;;;;;;6122185;23;20521;-76
2021/01/31 08:11:57;;;;;;;2.20;2.00;;;-1.10;98.20;;;;;;6121722;23;20422;-76
2021/01/31 08:15:00;;;;;;;1.90;1.80;;;-0.90;98.20;;;;;;6123454;23;20434;-76
2021/01/31 08:17:47;;;;;;;1.80;1.70;;;-0.70;98.20;;;;;;6128290;23;20397;-76
2021/01/31 08:20:37;;;;;;;1.93;1.80;;;-0.60;98.20;;;;;;6128116;23;20580;-78
2021/01/31 08:23:25;;;;;;;1.80;1.70;;;-0.40;98.20;;;;;;6124389;23;20461;-78
2021/01/31 08:25:57;;;;;;;2.00;1.80;;;-0.30;98.20;;;;;;6123821;23;20417;-78
2021/01/31 08:29:06;;;;;;;1.87;1.70;;;-0.20;98.20;;;;;;6132507;23;20456;-78
2021/01/31 08:31:33;;;;;;;1.83;1.70;;;-0.10;98.20;;;;;;6146308;23;20414;-78
2021/01/31 08:34:02;;;;;;;1.93;1.73;;;0.00;98.20;;;;;;6137690;23;20438;-79
2021/01/31 08:36:31;;;;;;;2.00;1.80;;;0.10;98.20;;;;;;6136761;23;20698;-79
2021/01/31 08:38:59;;;;;;;1.90;1.70;;;0.30;98.20;;;;;;6137429;23;20420;-79
2021/01/31 08:41:39;;;;;;;3.40;3.20;;;0.30;98.20;;;;;;6137449;23;20417;-78
2021/01/31 08:46:55;;;;;;;2.00;1.80;;;0.60;98.20;;;;;;6162213;23;20440;-76
2021/01/31 08:49:22;;;;;;;1.70;1.60;;;0.70;98.20;;;;;;6156792;23;20397;-73
2021/01/31 08:51:57;;;;;;;1.70;1.60;;;0.80;98.20;;;;;;6158177;23;20689;-75
2021/01/31 08:54:24;;;;;;;1.70;1.50;;;0.80;98.20;;;;;;6153373;23;20431;-75
2021/01/31 08:56:54;;;;;;;1.70;1.57;;;0.90;98.20;;;;;;6128484;23;20808;-76
2021/01/31 08:59:22;;;;;;;1.83;1.67;;;0.90;98.20;;;;;;6138699;23;20436;-77
2021/01/31 09:01:52;;;;;;;1.70;1.60;;;1.00;98.20;;;;;;6117163;23;20846;-75
2021/01/31 09:04:21;;;;;;;1.80;1.70;;;1.00;98.20;;;;;;6124963;23;20426;-78
2021/01/31 09:06:49;;;;;;;1.90;1.70;;;1.10;98.20;;;;;;6127233;23;20457;-77
2021/01/31 09:09:20;;;;;;;1.90;1.70;;;1.20;98.20;;;;;;6126051;23;20729;-77
2021/01/31 09:11:52;;;;;;;1.80;1.70;;;1.20;98.20;;;;;;6126322;23;20414;-76
2021/01/31 09:14:19;;;;;;;1.70;1.53;;;1.30;98.20;;;;;;6128990;23;20918;-77
2021/01/31 09:16:46;;;;;;;1.70;1.60;;;1.30;98.20;;;;;;6138214;23;20422;-76
2021/01/31 09:19:19;;;;;;;1.90;1.70;;;1.40;98.20;;;;;;6129703;23;20858;-75
2021/01/31 09:21:47;;;;;;;4.20;3.90;;;1.40;98.20;;;;;;6122838;23;20410;-75
2021/01/31 09:24:19;;;;;;;1.70;1.53;;;1.50;98.20;;;;;;6123891;23;20702;-76
2021/01/31 09:26:51;;;;;;;1.80;1.70;;;1.50;98.20;;;;;;6133602;23;20432;-76
2021/01/31 09:29:22;;;;;;;1.70;1.60;;;1.60;98.20;;;;;;6125270;23;20767;-75
2021/01/31 09:31:53;;;;;;;1.70;1.50;;;1.60;98.20;;;;;;6123669;23;20410;-75
2021/01/31 09:34:22;;;;;;;1.70;1.50;;;1.60;98.20;;;;;;6124901;23;20410;-74
2021/01/31 09:37:04;;;;;;;1.70;1.50;;;1.60;98.20;;;;;;6123321;23;20426;-76
2021/01/31 09:39:33;;;;;;;1.70;1.60;;;1.60;98.20;;;;;;6123612;23;20611;-76
2021/01/31 09:42:01;;;;;;;1.70;1.50;;;1.60;98.20;;;;;;6124025;23;20820;-76
2021/01/31 09:44:29;;;;;;;1.70;1.50;;;1.60;98.20;;;;;;6120252;23;20970;-75
2021/01/31 09:46:57;;;;;;;1.70;1.50;;;1.70;98.20;;;;;;6121510;23;20461;-75
2021/01/31 09:49:27;;;;;;;1.70;1.60;;;1.70;98.20;;;;;;6120730;23;20457;-76
2021/01/31 09:51:54;;;;;;;1.70;1.60;;;1.80;98.20;;;;;;6123582;23;20469;-76
2021/01/31 09:54:22;;;;;;;1.70;1.60;;;1.80;98.20;;;;;;6124161;23;20434;-75
2021/01/31 09:56:52;;;;;;;6.27;5.87;;;1.80;97.60;;;;;;6123088;23;20488;-76
2021/01/31 09:59:31;;;;;;;1.73;1.63;;;1.80;98.10;;;;;;6123282;23;20743;-75
2021/01/31 10:02:07;;;;;;;1.70;1.50;;;1.80;97.30;;;;;;6120391;23;20425;-74
2021/01/31 10:04:34;;;;;;;1.67;1.50;;;1.80;98.00;;;;;;6122772;23;20450;-75
2021/01/31 10:07:07;;;;;;;1.70;1.53;;;1.90;98.20;;;;;;6123449;23;20449;-74
2021/01/31 10:09:35;;;;;;;1.70;1.50;;;1.90;97.90;;;;;;6131916;23;20456;-74
2021/01/31 10:12:25;;;;;;;1.70;1.60;;;1.90;98.00;;;;;;6134743;23;20492;-75
2021/01/31 10:14:55;;;;;;;1.70;1.50;;;2.00;98.20;;;;;;6120018;23;20488;-74
2021/01/31 10:17:34;;;;;;;1.70;1.53;;;2.00;97.70;;;;;;6121704;23;20418;-76
2021/01/31 10:20:30;;;;;;;1.67;1.50;;;2.00;97.60;;;;;;6120234;23;20945;-75
2021/01/31 10:23:01;;;;;;;1.70;1.50;;;2.10;97.20;;;;;;6120941;23;20437;-76
2021/01/31 10:25:28;;;;;;;1.70;1.50;;;2.20;97.60;;;;;;6131131;23;20445;-76
2021/01/31 10:27:58;;;;;;;1.70;1.50;;;2.20;96.90;;;;;;6121989;23;20978;-75
2021/01/31 10:30:28;;;;;;;2.47;2.27;;;2.40;97.30;;;;;;6122327;23;20406;-77
2021/01/31 10:32:55;;;;;;;1.70;1.60;;;2.50;97.00;;;;;;6119114;23;20422;-76
2021/01/31 10:35:29;;;;;;;2.17;1.97;;;2.50;96.70;;;;;;6119922;23;20446;-76
2021/01/31 10:37:56;;;;;;;1.70;1.50;;;2.60;96.40;;;;;;6129725;23;20418;-77
2021/01/31 10:40:23;;;;;;;1.70;1.50;;;2.60;96.40;;;;;;6120907;23;20426;-76
2021/01/31 10:42:49;;;;;;;1.70;1.50;;;2.70;96.10;;;;;;6121647;23;20426;-77
2021/01/31 10:45:21;;;;;;;1.70;1.60;;;2.70;96.40;;;;;;6130783;23;20454;-76
2021/01/31 10:47:49;;;;;;;1.70;1.50;;;2.80;95.80;;;;;;6119716;23;20438;-76
2021/01/31 10:50:17;;;;;;;1.70;1.43;;;2.80;95.80;;;;;;6119149;23;20934;-76
2021/01/31 10:52:45;;;;;;;2.23;2.00;;;2.80;96.00;;;;;;6128197;23;20765;-77
2021/01/31 10:55:13;;;;;;;4.07;3.77;;;2.80;95.10;;;;;;6118896;23;20623;-76
2021/01/31 10:57:39;;;;;;;1.70;1.40;;;2.70;95.40;;;;;;6118136;23;20838;-77
2021/01/31 11:00:09;;;;;;;1.70;1.53;;;2.70;95.40;;;;;;6127263;23;20941;-76
2021/01/31 11:02:36;;;;;;;1.67;1.40;;;2.70;95.40;;;;;;6127771;23;20414;-76
2021/01/31 11:05:05;;;;;;;1.67;1.40;;;2.80;95.70;;;;;;6119259;23;20555;-76
2021/01/31 11:07:32;;;;;;;1.80;1.70;;;2.80;95.50;;;;;;6128196;23;20445;-75
2021/01/31 11:09:59;;;;;;;1.70;1.40;;;2.90;96.00;;;;;;6118554;23;20449;-76
2021/01/31 11:12:26;;;;;;;1.67;1.40;;;3.00;95.20;;;;;;6120456;23;20433;-76
2021/01/31 11:14:52;;;;;;;1.70;1.60;;;2.90;95.10;;;;;;6120826;23;20452;-75
2021/01/31 11:17:19;;;;;;;1.70;1.40;;;3.00;94.80;;;;;;6117986;23;20449;-76
2021/01/31 11:19:45;;;;;;;1.67;1.57;;;3.00;94.60;;;;;;6119773;23;20425;-78
2021/01/31 11:22:13;;;;;;;1.70;1.50;;;2.90;94.90;;;;;;6119448;23;20537;-77
2021/01/31 11:24:39;;;;;;;1.63;1.40;;;3.00;94.80;;;;;;6119070;23;20671;-75
2021/01/31 11:27:09;;;;;;;1.70;1.53;;;3.00;94.60;;;;;;6127863;23;20647;-77
2021/01/31 11:29:36;;;;;;;1.70;1.50;;;3.00;94.10;;;;;;6119984;23;20492;-77
2021/01/31 11:32:02;;;;;;;1.70;1.40;;;3.10;94.70;;;;;;6121729;23;20465;-77
2021/01/31 11:34:29;;;;;;;1.70;1.60;;;3.20;94.80;;;;;;6121461;23;20442;-76
2021/01/31 11:36:55;;;;;;;1.70;1.40;;;3.10;93.70;;;;;;6122326;23;20478;-76
2021/01/31 11:39:22;;;;;;;1.70;1.40;;;3.10;94.30;;;;;;6120009;23;20445;-77
2021/01/31 11:41:49;;;;;;;1.70;1.60;;;3.10;93.70;;;;;;6120581;23;20529;-76
2021/01/31 11:44:16;;;;;;;1.67;1.43;;;3.00;93.70;;;;;;6119923;23;20914;-76
2021/01/31 11:46:43;;;;;;;1.67;1.40;;;3.00;94.40;;;;;;6121677;23;20428;-76
2021/01/31 11:49:09;;;;;;;1.70;1.50;;;3.10;94.50;;;;;;6120795;23;20445;-75
2021/01/31 11:51:35;;;;;;;1.70;1.50;;;3.10;94.50;;;;;;6124546;23;20484;-76
2021/01/31 11:54:02;;;;;;;1.67;1.30;;;3.20;94.50;;;;;;6125150;23;20931;-77
2021/01/31 11:56:29;;;;;;;1.70;1.40;;;3.20;94.90;;;;;;6120396;23;20449;-77
2021/01/31 11:58:56;;;;;;;1.60;1.30;;;3.30;94.90;;;;;;6122229;23;20422;-75
2021/01/31 12:01:22;;;;;;;1.60;1.40;;;3.30;93.90;;;;;;6123033;23;20452;-77
2021/01/31 12:03:49;;;;;;;1.67;1.47;;;3.20;94.10;;;;;;6122969;23;20425;-75
2021/01/31 12:06:15;;;;;;;1.67;1.47;;;3.20;94.80;;;;;;6122665;23;20449;-75
2021/01/31 12:08:45;;;;;;;1.70;1.50;;;3.10;94.70;;;;;;6122149;23;20670;-75
2021/01/31 12:11:12;;;;;;;1.67;1.40;;;3.10;94.60;;;;;;6123451;23;20425;-76
2021/01/31 12:13:39;;;;;;;1.80;1.70;;;3.00;94.80;;;;;;6132325;23;20449;-76
2021/01/31 12:16:06;;;;;;;1.70;1.50;;;3.00;95.00;;;;;;6122388;23;20779;-75
2021/01/31 12:18:32;;;;;;;1.70;1.50;;;2.90;95.30;;;;;;6129230;23;20494;-76
2021/01/31 12:21:02;;;;;;;1.70;1.40;;;2.90;95.10;;;;;;6120536;23;20433;-76
2021/01/31 12:23:30;;;;;;;1.67;1.40;;;2.80;95.60;;;;;;6122896;23;20425;-76
2021/01/31 12:25:57;;;;;;;1.60;1.40;;;2.80;95.90;;;;;;6132054;23;20468;-76
2021/01/31 12:28:23;;;;;;;1.70;1.40;;;2.70;95.90;;;;;;6122659;23;20453;-76
2021/01/31 12:30:50;;;;;;;1.70;1.40;;;2.80;96.40;;;;;;6122249;23;20422;-77
2021/01/31 12:33:17;;;;;;;1.70;1.60;;;2.90;96.70;;;;;;6125452;23;20441;-77
2021/01/31 12:35:43;;;;;;;1.70;1.43;;;2.90;96.30;;;;;;6124830;23;20456;-78
2021/01/31 12:38:10;;;;;;;1.60;1.40;;;2.90;95.60;;;;;;6130778;23;20430;-77
2021/01/31 12:40:36;;;;;;;1.70;1.40;;;2.90;95.90;;;;;;6132377;23;20421;-76
2021/01/31 12:43:03;;;;;;;1.70;1.40;;;2.90;95.50;;;;;;6121252;23;20434;-76
2021/01/31 12:45:29;;;;;;;1.70;1.53;;;2.90;95.60;;;;;;6123043;23;20453;-77
2021/01/31 12:47:57;;;;;;;1.97;1.77;;;2.90;96.20;;;;;;6121515;23;20476;-76
2021/01/31 12:50:32;;;;;;;1.70;1.40;;;2.90;96.00;;;;;;6122685;23;20418;-77
2021/01/31 12:52:58;;;;;;;1.70;1.40;;;2.90;95.90;;;;;;6133231;23;20865;-77
2021/01/31 12:55:25;;;;;;;1.70;1.50;;;3.10;96.00;;;;;;6123402;23;20453;-76
2021/01/31 12:57:52;;;;;;;1.67;1.40;;;3.30;95.50;;;;;;6124239;23;20472;-77
2021/01/31 13:00:20;;;;;;;1.70;1.40;;;3.40;94.80;;;;;;6124088;23;20425;-78
2021/01/31 13:02:47;;;;;;;1.60;1.40;;;3.60;94.60;;;;;;6120732;23;20429;-77
2021/01/31 13:05:16;;;;;;;1.60;1.30;;;3.80;93.70;;;;;;6130094;23;20434;-76
2021/01/31 13:07:42;;;;;;;1.70;1.53;;;3.80;93.30;;;;;;6135053;23;20456;-78
2021/01/31 13:10:10;;;;;;;10.10;9.27;;;4.00;93.10;;;;;;6126071;23;20432;-77
2021/01/31 13:12:37;;;;;;;1.70;1.40;;;4.10;92.40;;;;;;6121485;23;20874;-77
2021/01/31 13:15:04;;;;;;;1.70;1.43;;;4.10;92.30;;;;;;6119516;23;20474;-78
2021/01/31 13:17:31;;;;;;;1.70;1.60;;;4.10;92.40;;;;;;6120092;23;20461;-76
2021/01/31 13:19:57;;;;;;;1.70;1.43;;;4.20;91.90;;;;;;6129369;23;20418;-77